createdAt,value
2023-02-13T00:00:49.718Z,86.40
2023-02-13T00:03:51.741Z,86.30
2023-02-13T00:06:53.861Z,86.70
2023-02-13T00:09:55.847Z,86.60
2023-02-13T00:12:57.953Z,86.20
2023-02-13T00:16:02.070Z,86.40
2023-02-13T00:19:04.507Z,86.10
2023-02-13T00:22:06.757Z,86.50
2023-02-13T00:25:09.643Z,86.70
2023-02-13T00:28:11.656Z,86.20
2023-02-13T00:31:17.178Z,86.90
2023-02-13T00:34:19.316Z,86.80
2023-02-13T00:37:21.304Z,86.50
2023-02-13T00:40:23.583Z,86.90
2023-02-13T00:43:25.746Z,86.60
2023-02-13T00:46:27.980Z,86.60
2023-02-13T00:49:30.073Z,86.60
2023-02-13T00:52:35.017Z,86.90
2023-02-13T00:55:37.013Z,86.20
2023-02-13T00:58:39.437Z,87.00
2023-02-13T01:01:41.905Z,86.20
2023-02-13T01:04:43.882Z,86.10
2023-02-13T01:07:46.032Z,86.30
2023-02-13T01:10:49.337Z,86.70
2023-02-13T01:13:53.135Z,86.20
2023-02-13T01:16:56.135Z,86.20
2023-02-13T01:19:58.093Z,86.10
2023-02-13T01:23:00.183Z,85.50
2023-02-13T01:26:08.546Z,86.10
2023-02-13T01:29:15.481Z,85.70
2023-02-13T01:32:17.672Z,86.10
2023-02-13T01:35:20.233Z,86.90
2023-02-13T01:38:22.630Z,86.30
2023-02-13T01:41:26.581Z,87.20
2023-02-13T01:44:46.937Z,88.00
2023-02-13T01:48:07.266Z,88.20
2023-02-13T01:51:14.925Z,88.10
2023-02-13T01:54:20.734Z,87.70
2023-02-13T01:57:25.882Z,88.00
2023-02-13T02:00:28.664Z,88.00
2023-02-13T02:03:57.726Z,88.30
2023-02-13T02:07:13.926Z,88.30
2023-02-13T02:10:18.856Z,88.20
2023-02-13T02:13:22.279Z,88.30
2023-02-13T02:16:29.298Z,88.40
2023-02-13T02:20:06.447Z,89.00
2023-02-13T02:23:46.641Z,89.00
2023-02-13T02:26:51.408Z,88.60
2023-02-13T02:30:23.981Z,88.60
2023-02-13T02:33:50.568Z,89.00
2023-02-13T02:37:33.058Z,88.80
2023-02-13T02:40:52.597Z,88.90
2023-02-13T02:44:09.223Z,89.30
2023-02-13T02:47:21.188Z,89.30
2023-02-13T02:50:41.598Z,89.30
2023-02-13T02:54:01.968Z,89.40
2023-02-13T02:57:17.072Z,89.40
2023-02-13T03:00:26.342Z,89.10
2023-02-13T03:03:30.095Z,89.50
2023-02-13T03:06:49.572Z,89.70
2023-02-13T03:09:58.284Z,89.90
2023-02-13T03:13:10.288Z,89.90
2023-02-13T03:16:18.791Z,90.20
2023-02-13T03:19:37.664Z,89.80
2023-02-13T03:22:53.585Z,90.00
2023-02-13T03:26:17.975Z,89.80
2023-02-13T03:29:49.077Z,89.70
2023-02-13T03:33:08.260Z,89.30
2023-02-13T03:36:21.084Z,89.00
2023-02-13T03:39:29.297Z,89.10
2023-02-13T03:42:36.968Z,89.30
2023-02-13T03:45:43.413Z,89.70
2023-02-13T03:48:46.389Z,89.20
2023-02-13T03:52:06.520Z,89.20
2023-02-13T03:55:29.878Z,89.00
2023-02-13T03:58:37.646Z,88.80
2023-02-13T04:01:41.470Z,89.20
2023-02-13T04:04:48.909Z,89.80
2023-02-13T04:07:53.456Z,89.50
2023-02-13T04:11:18.832Z,89.60
2023-02-13T04:14:50.755Z,89.20
2023-02-13T04:18:18.512Z,88.70
2023-02-13T04:21:20.548Z,88.90
2023-02-13T04:24:22.709Z,89.30
2023-02-13T04:27:27.918Z,88.90
2023-02-13T04:30:31.997Z,88.60
2023-02-13T04:33:35.507Z,88.90
2023-02-13T04:36:37.588Z,89.00
2023-02-13T04:39:39.662Z,89.20
2023-02-13T04:42:41.966Z,88.80
2023-02-13T04:45:44.174Z,89.00
2023-02-13T04:48:46.245Z,88.80
2023-02-13T04:51:48.224Z,88.60
2023-02-13T04:54:51.769Z,88.60
2023-02-13T04:57:57.139Z,89.00
2023-02-13T05:04:06.704Z,88.70
2023-02-13T05:07:08.832Z,88.70
2023-02-13T05:10:13.003Z,88.50
2023-02-13T05:13:15.142Z,88.70
2023-02-13T05:16:17.139Z,88.60
2023-02-13T05:19:19.113Z,88.70
2023-02-13T05:22:21.739Z,88.50
2023-02-13T05:25:23.872Z,88.80
2023-02-13T05:28:26.234Z,88.50
2023-02-13T05:31:28.362Z,88.40
2023-02-13T05:34:30.388Z,88.30
2023-02-13T05:37:32.662Z,88.00
2023-02-13T05:40:34.642Z,88.30
2023-02-13T05:43:36.682Z,87.80
2023-02-13T05:46:41.079Z,88.30
2023-02-13T05:49:43.155Z,88.30
2023-02-13T05:52:45.175Z,88.50
2023-02-13T05:55:47.246Z,88.60
2023-02-13T05:58:52.533Z,87.90
2023-02-13T06:01:54.569Z,87.60
2023-02-13T06:04:56.590Z,87.20
2023-02-13T06:07:58.662Z,87.70
2023-02-13T06:11:00.910Z,88.20
2023-02-13T06:14:04.602Z,87.50
2023-02-13T06:17:06.760Z,87.40
2023-02-13T06:20:09.471Z,87.40
2023-02-13T06:23:11.765Z,86.60
2023-02-13T06:26:13.743Z,86.50
2023-02-13T06:29:15.784Z,87.40
2023-02-13T06:32:17.826Z,87.90
2023-02-13T06:35:19.724Z,88.00
2023-02-13T06:38:21.784Z,87.40
2023-02-13T06:41:23.743Z,87.70
2023-02-13T06:44:25.757Z,87.50
2023-02-13T06:47:27.624Z,86.90
2023-02-13T06:50:29.583Z,87.00
2023-02-13T06:53:31.782Z,87.10
2023-02-13T06:56:33.799Z,86.70
2023-02-13T06:59:35.936Z,86.60
2023-02-13T07:02:38.140Z,86.50
2023-02-13T07:05:41.868Z,86.50
2023-02-13T07:08:43.849Z,86.30
2023-02-13T07:11:45.923Z,86.40
2023-02-13T07:14:47.981Z,86.40
2023-02-13T07:17:56.454Z,86.40
2023-02-13T07:20:58.768Z,86.40
2023-02-13T07:24:00.878Z,86.10
2023-02-13T07:27:02.986Z,86.20
2023-02-13T07:30:05.708Z,86.30
2023-02-13T07:33:07.774Z,85.90
2023-02-13T07:36:09.793Z,85.80
2023-02-13T07:39:11.866Z,85.70
2023-02-13T07:42:13.818Z,85.00
2023-02-13T07:45:16.630Z,83.90
2023-02-13T07:48:18.555Z,82.80
2023-02-13T07:51:20.807Z,82.80
2023-02-13T07:54:22.747Z,83.20
2023-02-13T07:57:24.632Z,83.50
2023-02-13T08:00:26.711Z,82.10
2023-02-13T08:03:28.614Z,80.10
2023-02-13T08:06:30.642Z,77.40
2023-02-13T08:09:32.582Z,75.90
2023-02-13T08:12:36.775Z,74.10
2023-02-13T08:15:38.775Z,72.80
2023-02-13T08:18:40.719Z,70.60
2023-02-13T08:21:42.914Z,71.10
2023-02-13T08:24:44.924Z,70.50
2023-02-13T08:27:47.841Z,68.50
2023-02-13T08:30:49.982Z,66.80
2023-02-13T08:33:56.861Z,66.70
2023-02-13T08:36:58.740Z,67.60
2023-02-13T08:40:01.105Z,65.30
2023-02-13T08:43:05.771Z,63.60
2023-02-13T08:46:07.761Z,63.90
2023-02-13T08:49:09.811Z,66.20
2023-02-13T08:52:11.938Z,65.40
2023-02-13T08:55:14.118Z,63.80
2023-02-13T08:58:16.196Z,60.80
2023-02-13T09:01:18.410Z,62.10
2023-02-13T09:04:22.691Z,62.20
2023-02-13T09:07:24.541Z,60.10
2023-02-13T09:10:26.417Z,59.30
2023-02-13T09:13:30.070Z,59.00
2023-02-13T09:16:31.987Z,58.50
2023-02-13T09:19:34.072Z,58.50
2023-02-13T09:22:36.173Z,58.10
2023-02-13T09:25:38.259Z,58.40
2023-02-13T09:28:41.577Z,58.10
2023-02-13T09:31:43.825Z,56.30
2023-02-13T09:34:46.460Z,55.50
2023-02-13T09:37:48.276Z,54.90
2023-02-13T09:40:55.057Z,55.30
2023-02-13T09:44:25.748Z,56.40
2023-02-13T09:47:34.765Z,58.30
2023-02-13T09:50:36.781Z,59.60
2023-02-13T09:53:38.900Z,58.40
2023-02-13T09:56:46.243Z,59.40
2023-02-13T09:59:54.325Z,58.50
2023-02-13T10:02:59.153Z,58.70
2023-02-13T10:06:06.836Z,59.90
2023-02-13T10:09:34.437Z,60.10
2023-02-13T10:13:14.836Z,59.20
2023-02-13T10:16:22.339Z,58.60
2023-02-13T10:20:00.112Z,59.40
2023-02-13T10:23:19.797Z,59.40
2023-02-13T10:26:27.520Z,59.80
2023-02-13T10:29:46.026Z,59.00
2023-02-13T10:32:55.949Z,59.00
2023-02-13T10:36:09.800Z,58.10
2023-02-13T10:39:26.894Z,58.90
2023-02-13T10:42:42.581Z,58.00
2023-02-13T10:46:02.963Z,57.70
2023-02-13T10:49:07.867Z,59.40
2023-02-13T10:52:34.631Z,58.90
2023-02-13T10:56:07.140Z,58.00
2023-02-13T10:59:45.124Z,58.20
2023-02-13T11:02:47.364Z,57.50
2023-02-13T11:05:50.454Z,57.90
2023-02-13T11:08:52.440Z,57.50
2023-02-13T11:11:54.806Z,57.30
2023-02-13T11:14:58.186Z,56.00
2023-02-13T11:18:13.848Z,57.10
2023-02-13T11:21:31.458Z,57.40
2023-02-13T11:24:34.028Z,57.90
2023-02-13T11:27:37.012Z,56.50
2023-02-13T11:30:39.431Z,58.00
2023-02-13T11:33:41.846Z,57.20
2023-02-13T11:36:43.763Z,58.30
2023-02-13T11:39:49.043Z,57.70
2023-02-13T11:42:52.855Z,58.50
2023-02-13T11:46:03.976Z,58.70
2023-02-13T11:49:14.718Z,59.90
2023-02-13T12:03:25.987Z,59.60
2023-02-13T12:06:28.141Z,59.40
2023-02-13T12:09:31.326Z,60.10
2023-02-13T12:12:42.746Z,60.30
2023-02-13T12:15:47.008Z,61.30
2023-02-13T12:18:57.343Z,60.80
2023-02-13T12:22:08.598Z,61.30
2023-02-13T12:25:25.915Z,60.90
2023-02-13T12:28:59.940Z,61.20
2023-02-13T12:32:29.778Z,60.60
2023-02-13T12:36:03.920Z,60.50
2023-02-13T12:39:18.234Z,61.30
2023-02-13T12:42:36.285Z,61.60
2023-02-13T12:45:57.203Z,61.80
2023-02-13T12:49:02.386Z,60.50
2023-02-13T12:52:30.248Z,61.60
2023-02-13T12:55:58.682Z,61.60
2023-02-13T12:59:04.392Z,60.30
2023-02-13T13:02:28.149Z,60.50
2023-02-13T13:05:45.132Z,60.40
2023-02-13T13:09:02.143Z,60.80
2023-02-13T13:12:12.662Z,61.20
2023-02-13T13:15:19.291Z,60.60
2023-02-13T13:18:31.848Z,60.20
2023-02-13T13:21:57.195Z,60.40
2023-02-13T13:25:17.217Z,60.70
2023-02-13T13:28:22.014Z,60.80
2023-02-13T13:31:26.783Z,60.00
2023-02-13T13:34:31.400Z,61.00
2023-02-13T13:37:44.185Z,61.00
2023-02-13T13:41:12.474Z,60.70
2023-02-13T13:44:53.696Z,61.20
2023-02-13T13:48:19.724Z,59.90
2023-02-13T13:51:22.066Z,60.30
2023-02-13T13:54:25.928Z,60.20
2023-02-13T13:57:57.030Z,60.70
2023-02-13T14:01:30.895Z,59.80
2023-02-13T14:04:32.900Z,60.20
2023-02-13T14:07:37.186Z,60.60
2023-02-13T14:11:01.999Z,60.80
2023-02-13T14:14:29.841Z,60.40
2023-02-13T14:17:46.655Z,61.20
2023-02-13T14:20:48.432Z,60.90
2023-02-13T14:23:50.882Z,61.40
2023-02-13T14:27:05.349Z,60.40
2023-02-13T14:30:34.628Z,60.00
2023-02-13T14:33:36.743Z,60.30
2023-02-13T14:36:45.283Z,60.40
2023-02-13T14:40:18.391Z,60.20
2023-02-13T14:43:44.558Z,60.70
2023-02-13T14:46:49.116Z,60.70
2023-02-13T14:49:52.858Z,61.40
2023-02-13T14:52:59.229Z,62.30
2023-02-13T14:56:14.365Z,62.00
2023-02-13T14:59:38.601Z,61.90
2023-02-13T15:02:49.690Z,62.10
2023-02-13T15:06:04.508Z,62.50
2023-02-13T15:09:27.029Z,62.30
2023-02-13T15:12:35.648Z,62.30
2023-02-13T15:15:37.507Z,62.90
2023-02-13T15:18:48.435Z,62.60
2023-02-13T15:22:01.814Z,62.50
2023-02-13T15:25:04.607Z,62.70
2023-02-13T15:28:09.272Z,62.40
2023-02-13T15:31:24.783Z,62.50
2023-02-13T15:34:32.685Z,63.20
2023-02-13T15:37:34.610Z,63.30
2023-02-13T15:40:41.528Z,64.00
2023-02-13T15:43:57.318Z,64.30
2023-02-13T15:47:29.721Z,64.10
2023-02-13T15:50:34.975Z,64.70
2023-02-13T15:53:36.991Z,65.20
2023-02-13T15:56:39.887Z,65.00
2023-02-13T15:59:47.068Z,65.20
2023-02-13T16:02:49.610Z,66.70
2023-02-13T16:05:51.645Z,66.50
2023-02-13T16:09:02.410Z,66.70
2023-02-13T16:12:21.018Z,67.90
2023-02-13T16:15:24.829Z,67.50
2023-02-13T16:18:26.808Z,68.30
2023-02-13T16:21:35.875Z,68.60
2023-02-13T16:24:37.959Z,68.70
2023-02-13T16:27:47.373Z,68.50
2023-02-13T16:31:02.012Z,69.20
2023-02-13T16:34:25.340Z,70.10
2023-02-13T16:37:32.751Z,70.70
2023-02-13T16:40:39.771Z,70.80
2023-02-13T16:43:43.511Z,71.10
2023-02-13T16:46:53.445Z,71.90
2023-02-13T16:49:57.000Z,71.60
2023-02-13T16:53:05.519Z,71.50
2023-02-13T16:56:11.643Z,71.50
2023-02-13T16:59:24.639Z,71.70
2023-02-13T17:02:32.302Z,72.00
2023-02-13T17:05:34.379Z,72.50
2023-02-13T17:08:36.337Z,72.30
2023-02-13T17:11:39.010Z,72.60
2023-02-13T17:14:41.290Z,73.20
2023-02-13T17:17:43.353Z,73.50
2023-02-13T17:20:45.746Z,73.40
2023-02-13T17:23:47.730Z,74.10
2023-02-13T17:26:49.590Z,74.00
2023-02-13T17:29:51.599Z,74.40
2023-02-13T17:32:59.054Z,74.70
2023-02-13T17:36:01.026Z,74.50
2023-02-13T17:39:03.018Z,74.80
2023-02-13T17:42:05.128Z,75.10
2023-02-13T17:45:07.314Z,75.80
2023-02-13T17:48:09.375Z,76.20
2023-02-13T17:51:14.502Z,76.60
2023-02-13T17:54:16.490Z,77.20
2023-02-13T17:57:19.185Z,77.50
2023-02-13T18:00:22.109Z,77.40
2023-02-13T18:03:24.193Z,76.80
2023-02-13T18:06:32.402Z,77.70
2023-02-13T18:09:34.339Z,77.80
2023-02-13T18:12:36.238Z,77.60
2023-02-13T18:15:43.891Z,78.40
2023-02-13T18:18:45.831Z,78.90
2023-02-13T18:24:56.973Z,79.00
2023-02-13T18:27:59.098Z,79.70
2023-02-13T18:31:03.504Z,79.60
2023-02-13T18:34:05.526Z,80.20
2023-02-13T18:40:17.034Z,80.20
2023-02-13T18:43:19.192Z,80.60
2023-02-13T18:46:21.312Z,80.70
2023-02-13T18:49:24.180Z,80.90
2023-02-13T18:52:26.266Z,80.70
2023-02-13T18:55:28.354Z,81.00
2023-02-13T18:58:30.905Z,80.90
2023-02-13T19:01:33.157Z,81.10
2023-02-13T19:04:35.425Z,81.10
2023-02-13T19:07:37.518Z,80.70
2023-02-13T19:10:39.804Z,80.50
2023-02-13T19:13:42.990Z,80.20
2023-02-13T19:16:45.090Z,81.20
2023-02-13T19:22:54.789Z,81.10
2023-02-13T19:25:56.935Z,80.40
2023-02-13T19:28:59.090Z,80.30
2023-02-13T19:32:01.136Z,80.10
2023-02-13T19:35:09.761Z,80.00
2023-02-13T19:38:12.390Z,79.90
2023-02-13T19:41:17.953Z,80.20
2023-02-13T19:44:20.032Z,79.90
2023-02-13T19:50:29.745Z,81.30
2023-02-13T19:53:31.736Z,82.10
2023-02-13T19:56:38.680Z,81.60
2023-02-13T19:59:41.951Z,81.30
2023-02-13T20:02:44.082Z,81.10
2023-02-13T20:05:46.354Z,81.10
2023-02-13T20:08:49.047Z,81.30
2023-02-13T20:11:51.264Z,81.50
2023-02-13T20:14:57.103Z,81.40
2023-02-13T20:18:05.821Z,81.60
2023-02-13T20:21:09.978Z,81.40
2023-02-13T20:24:14.259Z,81.30
2023-02-13T20:27:17.415Z,81.30
2023-02-13T20:30:19.850Z,82.00
2023-02-13T20:33:26.583Z,81.40
2023-02-13T20:36:31.651Z,81.20
2023-02-13T20:39:36.867Z,81.40
2023-02-13T20:42:39.405Z,81.10
2023-02-13T20:45:41.780Z,80.90
2023-02-13T20:48:51.381Z,81.60
2023-02-13T20:51:53.995Z,82.10
2023-02-13T20:54:56.086Z,81.60
2023-02-13T20:58:00.319Z,81.40
2023-02-13T21:01:04.134Z,81.70
2023-02-13T21:04:11.424Z,81.40
2023-02-13T21:07:13.574Z,81.40
2023-02-13T21:10:16.270Z,82.30
2023-02-13T21:13:18.279Z,81.90
2023-02-13T21:16:23.163Z,81.80
2023-02-13T21:19:25.437Z,81.70
2023-02-13T21:22:27.494Z,81.50
2023-02-13T21:25:29.579Z,81.10
2023-02-13T21:28:31.726Z,81.60
2023-02-13T21:31:38.892Z,80.90
2023-02-13T21:34:41.128Z,81.50
2023-02-13T21:37:43.208Z,81.70
2023-02-13T21:40:45.379Z,81.30
2023-02-13T21:43:49.429Z,81.60
2023-02-13T21:46:51.484Z,81.70
2023-02-13T21:49:53.644Z,81.70
2023-02-13T21:52:55.864Z,81.70
2023-02-13T21:56:00.738Z,82.10
2023-02-13T21:59:03.862Z,81.70
2023-02-13T22:02:18.591Z,82.50
2023-02-13T22:05:21.257Z,82.20
2023-02-13T22:08:23.192Z,82.90
2023-02-13T22:11:28.242Z,84.40
2023-02-13T22:14:30.212Z,85.50
2023-02-13T22:17:32.231Z,85.90
2023-02-13T22:20:35.777Z,86.00
2023-02-13T22:23:39.287Z,86.70
2023-02-13T22:26:43.638Z,87.00
2023-02-13T22:29:45.719Z,86.60
2023-02-13T22:32:47.862Z,87.00
2023-02-13T22:35:50.980Z,86.70
2023-02-13T22:38:53.296Z,86.60
2023-02-13T22:41:58.400Z,86.90
2023-02-13T22:45:00.483Z,86.80
2023-02-13T22:48:03.139Z,87.00
2023-02-13T22:51:10.110Z,86.50
2023-02-13T22:54:12.134Z,85.70
2023-02-13T22:57:14.141Z,86.90
2023-02-13T23:00:16.452Z,86.70
2023-02-13T23:03:18.744Z,86.20
2023-02-13T23:06:20.859Z,86.40
2023-02-13T23:09:23.151Z,87.10
2023-02-13T23:12:27.460Z,87.20
2023-02-13T23:15:32.452Z,86.80
2023-02-13T23:18:34.771Z,86.60
2023-02-13T23:21:36.940Z,86.80
2023-02-13T23:24:39.172Z,87.10
2023-02-13T23:27:42.061Z,85.90
2023-02-13T23:30:44.209Z,86.00
2023-02-13T23:33:46.316Z,86.50
2023-02-13T23:36:48.537Z,86.90
2023-02-13T23:39:50.524Z,87.60
2023-02-13T23:42:52.878Z,87.30
2023-02-13T23:45:55.278Z,87.50
2023-02-13T23:48:57.408Z,87.80
2023-02-13T23:51:59.428Z,87.30
2023-02-13T23:55:01.395Z,87.70
2023-02-13T23:58:03.349Z,87.10
